Peakville, New York
Current Conditions -  °F | °C
As of 7:55 AM on Monday 22 Dec 2014 (Local Time) from KMSV Reporting Station
Overcast Overcast  
Wind Chill: 22°   Ceiling: 400
Heat Index: 28°   Visibility: 5mi
Dew Point: 28°   Wind: 6mph
Humidity: 100%   Direction: 90°E
Pressure: 30.27"   Gusts: NA
Location:  41.9811°N, 75.0952°W
Report Text: KMSV 221255Z AUTO 09005KT 5SM OVC004 M02/M02 A3027 RMK AO1
Loading
Personal Weather Stations






























Interactive Weather Map New forecast layout! Learn more

10-Day Weather Forecast

Advertisements
Track Severe Weather on mobile